createdAt,value
2017-10-16T00:01:05.497Z,13.17
2017-10-16T00:03:33.454Z,11.23
2017-10-16T00:06:01.437Z,12.10
2017-10-16T00:08:29.396Z,11.90
2017-10-16T00:10:57.351Z,12.37
2017-10-16T00:13:25.290Z,12.20
2017-10-16T00:15:53.287Z,12.97
2017-10-16T00:18:21.237Z,11.83
2017-10-16T00:20:49.170Z,12.60
2017-10-16T00:23:17.141Z,11.60
2017-10-16T00:25:45.076Z,13.20
2017-10-16T00:28:13.027Z,13.17
2017-10-16T00:30:40.986Z,13.30
2017-10-16T00:33:08.969Z,13.33
2017-10-16T00:35:36.938Z,12.70
2017-10-16T00:38:04.939Z,11.37
2017-10-16T00:40:32.907Z,12.63
2017-10-16T00:43:00.875Z,13.00
2017-10-16T00:45:28.827Z,12.53
2017-10-16T00:47:56.812Z,12.20
2017-10-16T00:50:24.783Z,13.00
2017-10-16T00:52:52.721Z,13.87
2017-10-16T00:55:20.722Z,13.80
2017-10-16T00:57:48.655Z,13.87
2017-10-16T01:00:16.620Z,13.67
2017-10-16T01:02:44.572Z,14.03
2017-10-16T01:05:12.526Z,14.30
2017-10-16T01:07:40.503Z,14.13
2017-10-16T01:10:08.487Z,13.40
2017-10-16T01:12:36.438Z,13.70
2017-10-16T01:15:04.414Z,13.97
2017-10-16T01:17:32.402Z,13.80
2017-10-16T01:20:00.417Z,13.70
2017-10-16T01:22:28.369Z,12.07
2017-10-16T01:24:56.345Z,13.13
2017-10-16T01:27:24.331Z,13.43
2017-10-16T01:29:52.285Z,13.80
2017-10-16T01:32:20.265Z,11.90
2017-10-16T01:34:48.229Z,11.60
2017-10-16T01:37:16.200Z,13.53
2017-10-16T01:39:44.143Z,12.70
2017-10-16T01:42:12.107Z,12.67
2017-10-16T01:44:40.065Z,13.00
2017-10-16T01:47:08.676Z,12.20
2017-10-16T01:49:36.646Z,13.83
2017-10-16T01:52:04.584Z,12.37
2017-10-16T01:54:32.554Z,13.60
2017-10-16T01:57:00.523Z,13.80
2017-10-16T01:59:28.452Z,13.47
2017-10-16T02:01:56.435Z,12.47
2017-10-16T02:04:24.480Z,12.73
2017-10-16T02:06:52.463Z,12.60
2017-10-16T02:09:20.423Z,11.80
2017-10-16T02:11:48.399Z,13.43
2017-10-16T02:14:16.382Z,13.13
2017-10-16T02:16:44.328Z,13.97
2017-10-16T02:19:12.307Z,12.37
2017-10-16T02:21:41.291Z,13.10
2017-10-16T02:24:09.263Z,13.33
2017-10-16T02:26:37.289Z,13.10
2017-10-16T02:29:05.244Z,12.73
2017-10-16T02:31:33.212Z,12.37
2017-10-16T02:34:01.182Z,13.40
2017-10-16T02:36:29.151Z,12.90
2017-10-16T02:38:57.128Z,12.40
2017-10-16T02:41:25.077Z,13.37
2017-10-16T02:43:53.056Z,13.20
2017-10-16T02:46:21.038Z,12.67
2017-10-16T02:48:49.030Z,12.53
2017-10-16T02:51:16.985Z,13.47
2017-10-16T02:53:44.920Z,13.03
2017-10-16T02:56:12.883Z,12.90
2017-10-16T02:58:40.879Z,13.93
2017-10-16T03:01:08.828Z,13.63
2017-10-16T03:03:36.837Z,13.40
2017-10-16T03:06:04.781Z,13.20
2017-10-16T03:08:32.742Z,12.50
2017-10-16T03:11:00.796Z,14.37
2017-10-16T03:13:28.779Z,14.40
2017-10-16T03:15:56.771Z,13.23
2017-10-16T03:18:24.741Z,13.70
2017-10-16T03:20:52.754Z,14.30
2017-10-16T03:23:20.760Z,13.53
2017-10-16T03:25:48.761Z,15.23
2017-10-16T03:28:16.740Z,14.27
2017-10-16T03:30:45.096Z,14.13
2017-10-16T03:33:13.073Z,14.03
2017-10-16T03:35:41.041Z,13.90
2017-10-16T03:38:09.043Z,13.43
2017-10-16T03:40:37.047Z,13.23
2017-10-16T03:43:05.012Z,14.07
2017-10-16T03:45:32.944Z,14.77
2017-10-16T03:48:00.910Z,13.40
2017-10-16T03:50:28.871Z,15.13
2017-10-16T03:52:56.869Z,14.90
2017-10-16T03:55:24.827Z,14.80
2017-10-16T03:57:52.797Z,14.17
2017-10-16T04:00:20.797Z,14.47
2017-10-16T04:02:48.776Z,14.70
2017-10-16T04:05:16.732Z,14.13
2017-10-16T04:07:44.738Z,14.53
2017-10-16T04:10:12.673Z,14.33
2017-10-16T04:12:40.890Z,14.53
2017-10-16T04:15:09.579Z,15.60
2017-10-16T04:17:37.545Z,15.20
2017-10-16T04:20:05.508Z,14.73
2017-10-16T04:22:33.516Z,15.57
2017-10-16T04:25:01.455Z,15.23
2017-10-16T04:27:29.476Z,15.43
2017-10-16T04:29:57.433Z,17.20
2017-10-16T04:32:26.591Z,16.27
2017-10-16T04:34:54.666Z,16.83
2017-10-16T04:37:22.647Z,15.70
2017-10-16T04:39:50.614Z,17.07
2017-10-16T04:42:18.566Z,16.67
2017-10-16T04:44:46.502Z,16.60
2017-10-16T04:47:14.630Z,16.97
2017-10-16T04:49:42.778Z,16.97
2017-10-16T04:52:11.042Z,17.57
2017-10-16T04:54:39.488Z,16.20
2017-10-16T04:57:07.460Z,15.50
2017-10-16T04:59:35.429Z,16.13
2017-10-16T05:02:03.374Z,16.27
2017-10-16T05:04:31.367Z,16.43
2017-10-16T05:06:59.323Z,16.93
2017-10-16T05:09:27.329Z,17.50
2017-10-16T05:11:55.288Z,16.17
2017-10-16T05:14:23.245Z,16.30
2017-10-16T05:16:51.200Z,17.50
2017-10-16T05:19:19.172Z,16.80
2017-10-16T05:21:47.095Z,18.60
2017-10-16T05:24:15.088Z,17.57
2017-10-16T05:26:43.052Z,16.80
2017-10-16T05:29:11.008Z,18.43
2017-10-16T05:31:38.963Z,16.63
2017-10-16T05:34:06.934Z,17.47
2017-10-16T05:36:34.915Z,18.00
2017-10-16T05:39:02.914Z,16.77
2017-10-16T05:41:30.873Z,16.13
2017-10-16T05:43:58.978Z,16.33
2017-10-16T05:46:26.989Z,17.90
2017-10-16T05:48:54.940Z,17.70
2017-10-16T05:51:22.906Z,17.97
2017-10-16T05:53:50.882Z,17.40
2017-10-16T05:56:18.843Z,17.57
2017-10-16T05:58:47.707Z,17.33
2017-10-16T06:01:15.687Z,18.47
2017-10-16T06:03:43.658Z,15.73
2017-10-16T06:06:11.744Z,16.90
2017-10-16T06:08:39.699Z,17.27
2017-10-16T06:11:07.628Z,18.33
2017-10-16T06:13:35.571Z,17.93
2017-10-16T06:16:03.545Z,19.30
2017-10-16T06:18:31.560Z,19.20
2017-10-16T06:20:59.507Z,17.23
2017-10-16T06:23:27.511Z,19.80
2017-10-16T06:25:55.594Z,20.20
2017-10-16T06:28:23.858Z,18.90
2017-10-16T06:30:51.864Z,22.37
2017-10-16T06:33:19.879Z,21.63
2017-10-16T06:35:47.851Z,19.90
2017-10-16T06:38:15.857Z,19.27
2017-10-16T06:40:44.527Z,20.23
2017-10-16T06:43:12.457Z,19.90
2017-10-16T06:45:40.475Z,18.50
2017-10-16T06:48:08.469Z,19.53
2017-10-16T06:50:36.440Z,19.20
2017-10-16T06:53:04.379Z,19.90
2017-10-16T06:55:32.413Z,20.43
2017-10-16T06:58:00.368Z,18.60
2017-10-16T07:00:28.312Z,18.93
2017-10-16T07:02:56.311Z,18.27
2017-10-16T07:05:25.017Z,17.67
2017-10-16T07:07:52.976Z,17.40
2017-10-16T07:10:21.003Z,18.70
2017-10-16T07:12:49.116Z,19.00
2017-10-16T07:15:17.114Z,18.97
2017-10-16T07:17:45.108Z,18.63
2017-10-16T07:20:13.063Z,18.67
2017-10-16T07:22:41.068Z,19.47
2017-10-16T07:25:09.705Z,19.37
2017-10-16T07:27:37.716Z,20.03
2017-10-16T07:30:05.679Z,19.83
2017-10-16T07:32:33.878Z,19.10
2017-10-16T07:35:01.821Z,20.47
2017-10-16T07:37:29.787Z,19.33
2017-10-16T07:39:57.819Z,20.70
2017-10-16T07:42:25.837Z,21.80
2017-10-16T07:44:54.015Z,22.17
2017-10-16T07:47:21.984Z,22.50
2017-10-16T07:49:49.983Z,24.20
2017-10-16T07:52:17.937Z,22.57
2017-10-16T07:54:45.890Z,22.37
2017-10-16T07:57:13.859Z,21.00
2017-10-16T07:59:41.804Z,21.80
2017-10-16T08:02:09.776Z,22.47
2017-10-16T08:04:37.747Z,22.80
2017-10-16T08:07:05.784Z,22.37
2017-10-16T08:09:33.765Z,21.83
2017-10-16T08:12:01.730Z,22.43
2017-10-16T08:14:29.689Z,24.20
2017-10-16T08:16:57.633Z,22.67
2017-10-16T08:19:25.585Z,22.10
2017-10-16T08:21:53.557Z,22.63
2017-10-16T08:24:21.559Z,23.37
2017-10-16T08:26:49.512Z,23.80
2017-10-16T08:29:17.488Z,23.33
2017-10-16T08:31:45.442Z,23.30
2017-10-16T08:34:13.465Z,22.80
2017-10-16T08:36:41.420Z,23.77
2017-10-16T08:39:09.360Z,22.67
2017-10-16T08:41:37.308Z,22.07
2017-10-16T08:44:05.334Z,23.93
2017-10-16T08:46:33.271Z,27.47
2017-10-16T08:49:02.135Z,23.20
2017-10-16T08:51:30.077Z,23.67
2017-10-16T08:53:58.077Z,20.13
2017-10-16T08:56:26.109Z,23.77
2017-10-16T08:58:54.930Z,21.43
2017-10-16T09:01:23.035Z,21.70
2017-10-16T09:03:51.193Z,25.00
2017-10-16T09:06:20.582Z,23.97
2017-10-16T09:08:48.559Z,25.70
2017-10-16T09:11:16.560Z,25.50
2017-10-16T09:13:44.688Z,25.90
2017-10-16T09:16:12.698Z,24.97
2017-10-16T09:18:40.684Z,26.30
2017-10-16T09:21:08.845Z,26.17
2017-10-16T09:23:37.053Z,25.37
2017-10-16T09:26:05.188Z,26.33
2017-10-16T09:28:33.483Z,26.50
2017-10-16T09:31:01.445Z,26.67
2017-10-16T09:33:29.579Z,26.10
2017-10-16T09:35:57.507Z,27.00
2017-10-16T09:38:25.472Z,28.53
2017-10-16T09:40:53.456Z,28.57
2017-10-16T09:43:21.418Z,29.57
2017-10-16T09:45:49.837Z,28.43
2017-10-16T09:48:17.926Z,28.20
2017-10-16T09:50:46.026Z,25.97
2017-10-16T09:53:14.284Z,29.03
2017-10-16T09:55:42.642Z,28.57
2017-10-16T09:58:10.598Z,31.33
2017-10-16T10:00:38.543Z,29.67
2017-10-16T10:03:06.562Z,28.97
2017-10-16T10:05:34.531Z,28.13
2017-10-16T10:08:02.491Z,27.30
2017-10-16T10:10:30.440Z,29.67
2017-10-16T10:12:58.405Z,30.30
2017-10-16T10:15:26.347Z,30.57
2017-10-16T10:17:54.344Z,30.67
2017-10-16T10:20:23.044Z,30.80
2017-10-16T10:22:51.018Z,30.50
2017-10-16T10:25:19.063Z,29.20
2017-10-16T10:27:47.020Z,30.47
2017-10-16T10:30:14.994Z,29.20
2017-10-16T10:32:42.945Z,29.97
2017-10-16T10:35:10.971Z,28.67
2017-10-16T10:37:39.924Z,29.90
2017-10-16T10:40:07.898Z,29.40
2017-10-16T10:42:36.791Z,29.83
2017-10-16T10:45:04.753Z,30.63
2017-10-16T10:47:32.860Z,30.17
2017-10-16T10:50:00.893Z,32.17
2017-10-16T10:52:28.816Z,32.10
2017-10-16T10:54:56.799Z,30.40
2017-10-16T10:57:24.763Z,31.97
2017-10-16T10:59:52.712Z,31.30
2017-10-16T11:02:20.699Z,32.40
2017-10-16T11:04:48.676Z,30.30
2017-10-16T11:07:16.639Z,29.83
2017-10-16T11:09:44.619Z,94.30
2017-10-16T11:12:12.587Z,34.00
2017-10-16T11:14:40.555Z,31.47
2017-10-16T11:17:08.546Z,30.20
2017-10-16T11:19:36.496Z,30.80
2017-10-16T11:22:04.471Z,29.90
2017-10-16T11:24:32.429Z,30.10
2017-10-16T11:27:00.491Z,30.40
2017-10-16T11:29:28.447Z,34.00
2017-10-16T11:31:56.430Z,28.60
2017-10-16T11:34:24.440Z,28.60
2017-10-16T11:36:52.366Z,28.20
2017-10-16T11:39:20.329Z,29.20
2017-10-16T11:41:48.283Z,29.57
2017-10-16T11:44:16.250Z,28.00
2017-10-16T11:46:44.209Z,27.63
2017-10-16T11:49:12.163Z,27.57
2017-10-16T11:51:40.112Z,27.63
2017-10-16T11:54:08.131Z,28.90
2017-10-16T11:56:36.086Z,28.97
2017-10-16T11:59:04.060Z,26.93
2017-10-16T12:01:32.026Z,28.10
2017-10-16T12:04:00.201Z,26.17
2017-10-16T12:06:28.227Z,24.67
2017-10-16T12:08:56.248Z,25.60
2017-10-16T12:11:24.222Z,26.20
2017-10-16T12:13:52.206Z,23.97
2017-10-16T12:16:20.228Z,25.53
2017-10-16T12:18:48.324Z,25.20
2017-10-16T12:21:16.287Z,25.17
2017-10-16T12:23:44.913Z,25.37
2017-10-16T12:26:12.903Z,24.97
2017-10-16T12:28:40.871Z,26.13
2017-10-16T12:31:08.822Z,24.60
2017-10-16T12:33:36.778Z,25.00
2017-10-16T12:36:04.737Z,24.90
2017-10-16T12:38:32.710Z,27.50
2017-10-16T12:41:00.661Z,23.77
2017-10-16T12:43:28.636Z,26.20
2017-10-16T12:45:57.422Z,26.00
2017-10-16T12:48:25.537Z,25.80
2017-10-16T12:50:53.470Z,24.87
2017-10-16T12:53:21.710Z,24.73
2017-10-16T12:55:49.671Z,26.13
2017-10-16T12:58:17.947Z,26.07
2017-10-16T13:00:47.103Z,26.73
2017-10-16T13:03:15.098Z,27.10
2017-10-16T13:05:43.052Z,27.60
2017-10-16T13:08:11.055Z,27.13
2017-10-16T13:10:40.025Z,26.60
2017-10-16T13:13:09.800Z,25.00
2017-10-16T13:15:37.837Z,24.43
2017-10-16T13:18:08.986Z,33.90
2017-10-16T13:20:37.000Z,31.03
2017-10-16T13:23:05.324Z,35.50
2017-10-16T13:25:33.280Z,29.90
2017-10-16T13:28:01.971Z,43.33
2017-10-16T13:30:30.084Z,32.10
2017-10-16T13:32:58.948Z,47.63
2017-10-16T13:35:26.891Z,30.77
2017-10-16T13:37:54.936Z,30.10
2017-10-16T13:40:22.906Z,30.00
2017-10-16T13:42:50.870Z,29.67
2017-10-16T13:45:19.565Z,27.07
2017-10-16T13:47:48.008Z,26.30
2017-10-16T13:50:16.011Z,25.03
2017-10-16T13:52:43.982Z,26.93
2017-10-16T13:55:12.011Z,25.03
2017-10-16T13:57:39.992Z,27.30
2017-10-16T14:00:07.977Z,24.10
2017-10-16T14:02:36.038Z,24.70
2017-10-16T14:05:04.020Z,23.63
2017-10-16T14:07:31.970Z,24.80
2017-10-16T14:09:59.947Z,25.13
2017-10-16T14:12:28.674Z,24.27
2017-10-16T14:14:57.023Z,24.90
2017-10-16T14:17:25.090Z,23.83
2017-10-16T14:19:53.080Z,24.80
2017-10-16T14:22:21.064Z,30.37
2017-10-16T14:24:49.087Z,34.10
2017-10-16T14:27:17.149Z,31.90
2017-10-16T14:29:45.123Z,33.30
2017-10-16T14:32:13.107Z,32.63
2017-10-16T14:34:41.129Z,31.80
2017-10-16T14:37:09.915Z,33.37
2017-10-16T14:39:37.875Z,31.67
2017-10-16T14:42:07.046Z,32.30
2017-10-16T14:44:35.064Z,30.80
2017-10-16T14:47:03.131Z,33.57
2017-10-16T14:49:31.178Z,31.47
2017-10-16T14:51:59.231Z,34.53
2017-10-16T14:54:27.287Z,34.10
2017-10-16T14:56:55.360Z,32.33
2017-10-16T14:59:23.350Z,34.77
2017-10-16T15:01:51.386Z,35.00
2017-10-16T15:04:19.465Z,36.10
2017-10-16T15:06:47.509Z,33.63
2017-10-16T15:09:15.509Z,35.00
2017-10-16T15:11:43.534Z,35.67
2017-10-16T15:14:11.576Z,34.57
2017-10-16T15:16:39.573Z,33.77
2017-10-16T15:19:08.415Z,32.00
2017-10-16T15:21:36.391Z,33.70
2017-10-16T15:24:04.459Z,34.53
2017-10-16T15:26:32.758Z,34.37
2017-10-16T15:29:00.850Z,35.07
2017-10-16T15:31:32.110Z,37.63
2017-10-16T15:34:00.148Z,33.37
2017-10-16T15:36:28.407Z,37.90
2017-10-16T15:38:57.035Z,36.57
2017-10-16T15:41:25.042Z,35.20
2017-10-16T15:43:53.083Z,36.70
2017-10-16T15:46:21.111Z,38.10
2017-10-16T15:48:49.114Z,39.20
2017-10-16T15:51:17.074Z,38.20
2017-10-16T15:53:45.022Z,39.90
2017-10-16T15:56:13.028Z,35.83
2017-10-16T15:58:41.461Z,36.50
2017-10-16T16:01:09.395Z,38.93
2017-10-16T16:03:37.397Z,41.90
2017-10-16T16:06:05.382Z,39.10
2017-10-16T16:08:33.347Z,41.80
2017-10-16T16:11:01.294Z,39.70
2017-10-16T16:13:29.292Z,41.10
2017-10-16T16:15:57.311Z,41.30
2017-10-16T16:18:25.262Z,43.20
2017-10-16T16:20:53.230Z,40.03
2017-10-16T16:23:21.205Z,40.87
2017-10-16T16:25:49.145Z,40.30
2017-10-16T16:28:17.272Z,38.87
2017-10-16T16:30:45.224Z,42.53
2017-10-16T16:33:13.199Z,41.27
2017-10-16T16:35:41.188Z,40.80
2017-10-16T16:38:11.770Z,42.57
2017-10-16T16:40:39.792Z,39.37
2017-10-16T16:43:07.754Z,43.23
2017-10-16T16:45:35.730Z,40.00
2017-10-16T16:48:03.737Z,41.07
2017-10-16T16:50:31.717Z,41.00
2017-10-16T16:52:59.692Z,40.93
2017-10-16T16:55:27.677Z,46.03
2017-10-16T16:57:55.611Z,43.13
2017-10-16T17:00:23.630Z,44.60
2017-10-16T17:02:51.626Z,43.77
2017-10-16T17:05:19.587Z,44.87
2017-10-16T17:07:47.551Z,45.13
2017-10-16T17:10:15.928Z,45.17
2017-10-16T17:12:43.940Z,51.37
2017-10-16T17:15:11.899Z,52.17
2017-10-16T17:17:39.899Z,49.87
2017-10-16T17:20:07.867Z,48.70
2017-10-16T17:22:35.835Z,48.80
2017-10-16T17:25:03.858Z,48.67
2017-10-16T17:27:31.816Z,47.93
2017-10-16T17:29:59.851Z,47.07
2017-10-16T17:32:27.894Z,44.37
2017-10-16T17:34:55.857Z,45.40
2017-10-16T17:37:26.076Z,47.50
2017-10-16T17:39:54.029Z,52.93
2017-10-16T17:42:22.171Z,109.63
2017-10-16T17:44:50.337Z,140.63
2017-10-16T17:47:18.328Z,121.30
2017-10-16T17:49:46.311Z,111.63
2017-10-16T17:52:14.258Z,67.33
2017-10-16T17:54:42.534Z,62.70
2017-10-16T17:57:10.490Z,77.10
2017-10-16T17:59:38.438Z,65.73
2017-10-16T18:02:06.400Z,54.77
2017-10-16T18:04:34.450Z,48.43
2017-10-16T18:07:02.384Z,48.67
2017-10-16T18:09:30.359Z,46.70
2017-10-16T18:11:58.281Z,45.90
2017-10-16T18:14:26.231Z,49.20
2017-10-16T18:16:54.175Z,48.53
2017-10-16T18:19:22.119Z,49.67
2017-10-16T18:21:50.055Z,52.30
2017-10-16T18:24:18.001Z,49.30
2017-10-16T18:26:45.943Z,48.77
2017-10-16T18:29:13.906Z,48.90
2017-10-16T18:31:41.881Z,51.53
2017-10-16T18:34:09.823Z,48.93
2017-10-16T18:36:37.793Z,48.07
2017-10-16T18:39:05.750Z,49.53
2017-10-16T18:41:33.807Z,48.30
2017-10-16T18:44:01.801Z,47.77
2017-10-16T18:46:29.958Z,49.97
2017-10-16T18:48:57.912Z,55.70
2017-10-16T18:51:25.971Z,52.10
2017-10-16T18:53:53.952Z,49.60
2017-10-16T18:56:22.051Z,50.93
2017-10-16T18:58:50.301Z,50.20
2017-10-16T19:01:18.314Z,47.17
2017-10-16T19:03:47.225Z,46.50
2017-10-16T19:06:15.266Z,47.50
2017-10-16T19:08:43.266Z,47.57
2017-10-16T19:11:11.280Z,49.30
2017-10-16T19:13:39.300Z,53.07
2017-10-16T19:16:07.539Z,53.63
2017-10-16T19:18:35.596Z,50.40
2017-10-16T19:21:03.554Z,50.70
2017-10-16T19:23:31.590Z,47.20
2017-10-16T19:25:59.567Z,47.10
2017-10-16T19:28:27.526Z,46.80
2017-10-16T19:30:55.544Z,50.80
2017-10-16T19:33:23.534Z,46.97
2017-10-16T19:35:51.467Z,48.40
2017-10-16T19:38:19.438Z,47.67
2017-10-16T19:40:47.376Z,45.23
2017-10-16T19:43:15.317Z,46.17
2017-10-16T19:45:43.284Z,45.60
2017-10-16T19:48:11.285Z,46.77
2017-10-16T19:50:39.211Z,46.17
2017-10-16T19:53:07.188Z,46.90
2017-10-16T19:55:35.117Z,46.00
2017-10-16T19:58:03.099Z,44.67
2017-10-16T20:00:31.089Z,43.60
2017-10-16T20:02:59.039Z,44.33
2017-10-16T20:05:26.994Z,47.50
2017-10-16T20:07:54.963Z,44.50
2017-10-16T20:10:22.942Z,43.10
2017-10-16T20:12:50.881Z,43.80
2017-10-16T20:15:18.834Z,45.30
2017-10-16T20:17:46.784Z,46.50
2017-10-16T20:20:14.722Z,44.50
2017-10-16T20:22:42.675Z,43.77
2017-10-16T20:25:10.626Z,44.20
2017-10-16T20:27:38.589Z,44.40
2017-10-16T20:30:06.555Z,43.73
2017-10-16T20:32:34.519Z,42.93
2017-10-16T20:35:02.454Z,40.97
2017-10-16T20:37:30.459Z,42.23
2017-10-16T20:39:58.428Z,42.83
2017-10-16T20:42:26.403Z,45.20
2017-10-16T20:44:54.371Z,42.57
2017-10-16T20:47:22.336Z,44.10
2017-10-16T20:49:50.315Z,45.73
2017-10-16T20:52:18.254Z,44.80
2017-10-16T20:54:46.249Z,43.03
2017-10-16T20:57:14.171Z,44.07
2017-10-16T20:59:42.139Z,41.40
2017-10-16T21:02:10.110Z,42.83
2017-10-16T21:04:38.109Z,39.83
2017-10-16T21:07:06.052Z,47.37
2017-10-16T21:09:34.018Z,41.70
2017-10-16T21:12:01.949Z,41.33
2017-10-16T21:14:29.926Z,39.40
2017-10-16T21:16:57.862Z,39.03
2017-10-16T21:19:25.819Z,41.77
2017-10-16T21:21:53.771Z,40.57
2017-10-16T21:24:21.735Z,39.43
2017-10-16T21:26:49.690Z,40.13
2017-10-16T21:29:17.665Z,38.50
2017-10-16T21:31:45.599Z,38.83
2017-10-16T21:34:13.567Z,39.97
2017-10-16T21:36:41.531Z,38.07
2017-10-16T21:39:09.472Z,37.70
2017-10-16T21:41:37.430Z,39.37
2017-10-16T21:44:05.382Z,40.23
2017-10-16T21:46:33.327Z,38.87
2017-10-16T21:49:01.299Z,37.27
2017-10-16T21:51:30.138Z,40.33
2017-10-16T21:53:58.083Z,39.73
2017-10-16T21:56:26.039Z,36.70
2017-10-16T21:58:54.015Z,38.30
2017-10-16T22:01:21.974Z,37.43
2017-10-16T22:03:50.837Z,37.80
2017-10-16T22:06:18.809Z,37.70
2017-10-16T22:08:46.768Z,36.10
2017-10-16T22:11:14.727Z,38.50
2017-10-16T22:13:42.948Z,36.73
2017-10-16T22:16:10.927Z,36.13
2017-10-16T22:18:38.907Z,35.60
2017-10-16T22:21:06.843Z,35.50
2017-10-16T22:23:34.827Z,35.60
2017-10-16T22:26:02.779Z,35.27
2017-10-16T22:28:30.725Z,34.60
2017-10-16T22:30:58.749Z,34.00
2017-10-16T22:33:26.720Z,35.80
2017-10-16T22:35:54.670Z,36.10
2017-10-16T22:38:22.657Z,34.33
2017-10-16T22:40:50.625Z,35.47
2017-10-16T22:43:18.606Z,36.63
2017-10-16T22:45:46.530Z,35.50
2017-10-16T22:48:14.530Z,36.30
2017-10-16T22:50:58.281Z,35.27
2017-10-16T22:53:26.284Z,35.60
2017-10-16T22:55:54.231Z,35.27
2017-10-16T22:58:22.223Z,37.43
2017-10-16T23:00:50.189Z,34.03
2017-10-16T23:03:18.114Z,35.57
2017-10-16T23:05:46.083Z,36.30
2017-10-16T23:08:14.056Z,35.03
2017-10-16T23:10:42.022Z,36.10
2017-10-16T23:13:10.027Z,35.80
2017-10-16T23:15:38.003Z,35.27
2017-10-16T23:18:05.955Z,33.70
2017-10-16T23:20:34.123Z,34.83
2017-10-16T23:23:02.075Z,35.43
2017-10-16T23:25:30.039Z,33.07
2017-10-16T23:27:58.034Z,34.80
2017-10-16T23:30:25.978Z,33.17
2017-10-16T23:32:53.946Z,33.53
2017-10-16T23:35:21.894Z,33.70
2017-10-16T23:37:49.889Z,33.23
2017-10-16T23:40:17.857Z,32.13
2017-10-16T23:42:45.803Z,33.50
2017-10-16T23:45:13.791Z,34.50
2017-10-16T23:47:41.779Z,31.63
2017-10-16T23:50:09.740Z,33.37
2017-10-16T23:52:37.693Z,31.27
2017-10-16T23:55:05.639Z,31.90
2017-10-16T23:57:33.683Z,31.07
